Time;durP1;ratioP1;P1;durP2;ratioP2;P2;SDS_P1;SDS_P2;PMS_P1;PMS_P2;Temp;Humidity;BMP_temperature;BMP_pressure;BME280_temperature;BME280_humidity;BME280_pressure;Samples;Min_cycle;Max_cycle;Signal;HPM_P1;HPM_P2
2023/12/08 00:01:20;;;;;;;598.08;554.28;;;1.90;99.90;;;;;;6305837;22;20064;-84
2023/12/08 00:03:46;;;;;;;638.05;590.80;;;1.50;99.90;;;;;;6304318;22;20062;-83
2023/12/08 00:06:11;;;;;;;636.60;589.83;;;1.20;99.90;;;;;;6280323;22;20011;-83
2023/12/08 00:08:37;;;;;;;626.25;580.13;;;0.90;99.90;;;;;;6278853;22;20328;-83
2023/12/08 00:11:04;;;;;;;636.13;589.38;;;1.60;99.90;;;;;;6305543;22;20072;-83
2023/12/08 00:13:30;;;;;;;610.65;566.10;;;0.90;99.90;;;;;;6304420;22;20439;-84
2023/12/08 00:15:55;;;;;;;606.20;562.28;;;0.90;99.90;;;;;;6304649;22;20018;-84
2023/12/08 00:18:21;;;;;;;778.30;718.28;;;1.30;99.90;;;;;;6306096;22;20654;-83
2023/12/08 00:20:47;;;;;;;840.70;774.20;;;1.10;99.90;;;;;;6305749;22;20397;-84
2023/12/08 00:23:14;;;;;;;804.00;740.60;;;1.80;99.90;;;;;;6303976;22;20018;-84
2023/12/08 00:25:40;;;;;;;808.42;745.88;;;1.50;99.90;;;;;;6305659;22;20033;-84
2023/12/08 00:28:06;;;;;;;652.60;604.35;;;1.00;99.90;;;;;;6304108;22;20645;-84
2023/12/08 00:30:32;;;;;;;851.70;784.47;;;1.30;99.90;;;;;;6278908;22;20011;-83
2023/12/08 00:32:58;;;;;;;745.00;688.83;;;1.00;99.90;;;;;;6305394;22;20053;-83
2023/12/08 00:35:24;;;;;;;642.50;595.13;;;1.30;99.90;;;;;;6305243;22;20014;-84
2023/12/08 00:37:49;;;;;;;623.38;578.15;;;1.70;99.90;;;;;;6303720;22;20015;-83
2023/12/08 00:40:16;;;;;;;833.85;767.60;;;1.80;99.90;;;;;;6303504;22;20068;-83
2023/12/08 00:42:42;;;;;;;741.65;685.05;;;1.50;99.90;;;;;;6304800;22;20076;-83
2023/12/08 00:45:08;;;;;;;858.03;789.05;;;1.70;99.90;;;;;;6304422;22;20015;-84
2023/12/08 00:47:34;;;;;;;897.25;823.78;;;0.90;99.90;;;;;;6304835;22;20018;-84
2023/12/08 00:49:59;;;;;;;849.95;782.28;;;1.20;99.90;;;;;;6279828;22;20022;-83
2023/12/08 00:52:25;;;;;;;799.50;738.42;;;1.40;99.90;;;;;;6303802;22;20068;-83
2023/12/08 00:54:51;;;;;;;743.15;687.13;;;1.40;99.90;;;;;;6305487;22;20015;-84
2023/12/08 00:57:16;;;;;;;786.03;725.30;;;1.90;99.90;;;;;;6300189;22;20098;-83
2023/12/08 00:59:42;;;;;;;747.17;690.33;;;1.90;99.90;;;;;;6297469;22;20505;-84
2023/12/08 01:02:08;;;;;;;664.67;615.00;;;1.50;99.90;;;;;;6300568;22;20015;-84
2023/12/08 01:04:34;;;;;;;746.53;689.65;;;0.90;99.90;;;;;;6299428;22;20080;-83
2023/12/08 01:07:00;;;;;;;642.65;595.40;;;0.90;99.90;;;;;;6273455;22;20033;-84
2023/12/08 01:09:26;;;;;;;640.45;593.55;;;1.40;99.90;;;;;;6299891;22;20426;-84
2023/12/08 01:11:52;;;;;;;737.17;681.42;;;0.90;99.90;;;;;;6272899;22;20011;-83
2023/12/08 01:14:18;;;;;;;798.90;737.13;;;1.90;99.90;;;;;;6273406;22;20186;-84
2023/12/08 01:16:44;;;;;;;869.03;798.28;;;1.30;99.90;;;;;;6299383;22;20086;-84
2023/12/08 01:19:11;;;;;;;842.22;775.05;;;1.30;99.90;;;;;;6273502;22;20027;-83
2023/12/08 01:21:38;;;;;;;787.15;727.00;;;1.60;99.90;;;;;;6274285;22;20089;-84
2023/12/08 01:24:05;;;;;;;704.67;651.60;;;1.10;99.90;;;;;;6275023;22;20047;-84
2023/12/08 01:26:31;;;;;;;788.28;728.17;;;0.90;99.90;;;;;;6273338;22;20023;-84
2023/12/08 01:28:57;;;;;;;744.70;688.20;;;1.10;99.90;;;;;;6298518;22;20090;-84
2023/12/08 01:31:23;;;;;;;887.42;814.45;;;1.50;99.90;;;;;;6274495;22;20098;-84
2023/12/08 01:33:48;;;;;;;867.90;798.30;;;1.90;99.90;;;;;;6298221;22;20028;-84
2023/12/08 01:36:14;;;;;;;873.85;803.38;;;1.50;99.90;;;;;;6302276;22;20396;-84
2023/12/08 01:38:44;;;;;;;799.92;737.83;;;2.00;99.90;;;;;;6273870;22;20030;-84
2023/12/08 01:41:14;;;;;;;779.10;719.58;;;1.20;99.90;;;;;;6273035;22;20011;-84
2023/12/08 01:43:39;;;;;;;797.17;735.28;;;1.30;99.90;;;;;;6272712;22;20106;-84
2023/12/08 01:46:06;;;;;;;719.65;665.17;;;1.30;99.90;;;;;;6274036;22;20346;-84
2023/12/08 01:48:32;;;;;;;911.88;835.92;;;0.90;99.90;;;;;;6298780;22;20021;-84
2023/12/08 01:50:58;;;;;;;884.38;812.85;;;1.60;99.90;;;;;;6273713;22;20062;-84
2023/12/08 01:53:23;;;;;;;864.55;795.03;;;1.70;99.90;;;;;;6273854;22;20019;-84
2023/12/08 01:55:49;;;;;;;886.38;813.47;;;1.60;99.90;;;;;;6274272;22;20022;-83
2023/12/08 01:58:17;;;;;;;867.40;798.05;;;2.20;99.90;;;;;;6303430;22;20087;-84
2023/12/08 02:00:45;;;;;;;904.55;829.88;;;1.20;99.90;;;;;;6304799;22;20014;-84
2023/12/08 02:03:13;;;;;;;907.78;833.15;;;2.00;99.90;;;;;;6277223;22;20029;-84
2023/12/08 02:05:47;;;;;;;892.63;818.65;;;1.80;99.90;;;;;;6279730;22;20052;-84
2023/12/08 02:08:13;;;;;;;934.92;855.60;;;1.60;99.90;;;;;;6278098;22;20466;-84
2023/12/08 02:10:39;;;;;;;902.00;827.38;;;2.10;99.90;;;;;;6304872;22;20442;-83
2023/12/08 02:13:05;;;;;;;903.85;829.33;;;0.90;99.90;;;;;;6303488;22;20018;-83
2023/12/08 02:15:30;;;;;;;872.13;801.50;;;0.90;99.90;;;;;;6303785;22;20062;-84
2023/12/08 02:17:57;;;;;;;868.40;799.65;;;0.90;99.90;;;;;;6304135;22;20026;-84
2023/12/08 02:20:22;;;;;;;900.65;827.35;;;0.90;99.90;;;;;;6305018;22;20481;-84
2023/12/08 02:22:48;;;;;;;880.85;809.75;;;2.00;99.90;;;;;;6303467;22;20011;-84
2023/12/08 02:25:14;;;;;;;900.55;825.50;;;0.90;99.90;;;;;;6304342;22;20028;-84
2023/12/08 02:27:40;;;;;;;893.50;819.20;;;1.50;99.90;;;;;;6277995;22;20017;-84
2023/12/08 02:30:07;;;;;;;877.10;805.78;;;0.90;99.90;;;;;;6303664;22;20250;-83
2023/12/08 02:32:49;;;;;;;879.72;808.20;;;0.90;99.90;;;;;;6278444;22;20011;-84
2023/12/08 02:35:18;;;;;;;880.72;809.10;;;0.90;99.90;;;;;;6279651;22;20427;-84
2023/12/08 02:37:46;;;;;;;901.83;828.28;;;1.60;99.90;;;;;;6303636;22;20010;-84
2023/12/08 02:40:12;;;;;;;891.85;818.05;;;1.30;99.90;;;;;;6305273;22;20450;-84
2023/12/08 02:42:38;;;;;;;851.00;782.47;;;1.20;99.90;;;;;;6278435;22;20006;-84
2023/12/08 02:45:04;;;;;;;869.35;800.58;;;1.70;99.90;;;;;;6303353;22;20040;-84
2023/12/08 02:47:30;;;;;;;859.30;791.35;;;0.90;99.90;;;;;;6304813;22;20469;-84
2023/12/08 02:49:56;;;;;;;875.17;805.10;;;1.00;99.90;;;;;;6304601;22;20015;-83
2023/12/08 02:52:21;;;;;;;855.08;786.78;;;1.30;99.90;;;;;;6304302;22;20011;-83
2023/12/08 02:54:47;;;;;;;848.95;781.88;;;1.30;99.90;;;;;;6304865;22;20027;-84
2023/12/08 02:57:13;;;;;;;888.97;816.97;;;1.70;99.90;;;;;;6278787;22;20409;-84
2023/12/08 02:59:38;;;;;;;856.58;787.30;;;1.70;99.90;;;;;;6302678;22;20019;-84
2023/12/08 03:02:04;;;;;;;854.35;786.55;;;1.40;99.90;;;;;;6304601;22;20010;-84
2023/12/08 03:04:30;;;;;;;854.50;786.72;;;1.30;99.90;;;;;;6303696;22;20446;-84
2023/12/08 03:06:55;;;;;;;867.53;798.22;;;1.10;99.90;;;;;;6304924;22;20045;-84
2023/12/08 03:09:21;;;;;;;844.03;777.47;;;1.40;99.90;;;;;;6304373;22;20007;-84
2023/12/08 03:11:47;;;;;;;840.38;773.47;;;1.50;99.90;;;;;;6303727;22;20041;-84
2023/12/08 03:14:12;;;;;;;794.53;733.03;;;1.80;99.90;;;;;;6303473;22;20351;-84
2023/12/08 03:16:38;;;;;;;759.88;701.70;;;1.70;99.90;;;;;;6304809;22;20015;-84
2023/12/08 03:19:04;;;;;;;719.63;665.90;;;1.30;99.90;;;;;;6304385;22;20010;-84
2023/12/08 03:21:29;;;;;;;733.45;677.90;;;1.70;99.90;;;;;;6303930;22;20011;-83
2023/12/08 03:23:55;;;;;;;643.85;596.40;;;0.90;99.90;;;;;;6304861;22;20097;-84
2023/12/08 03:26:21;;;;;;;616.33;571.60;;;1.10;99.90;;;;;;6303635;22;20029;-84
2023/12/08 03:28:47;;;;;;;776.63;716.83;;;1.90;99.90;;;;;;6303323;22;20399;-84
2023/12/08 03:31:23;;;;;;;591.38;549.30;;;1.80;99.90;;;;;;6305083;22;20017;-83
2023/12/08 03:33:49;;;;;;;540.00;502.00;;;0.90;99.90;;;;;;6303739;22;20018;-84
2023/12/08 03:36:15;;;;;;;556.78;517.35;;;1.80;99.90;;;;;;6306225;22;20022;-84
2023/12/08 03:38:40;;;;;;;566.67;526.47;;;0.90;99.90;;;;;;6305646;22;20019;-84
2023/12/08 03:41:06;;;;;;;603.65;559.85;;;2.00;99.90;;;;;;6305458;22;20022;-84
2023/12/08 03:43:31;;;;;;;785.33;724.67;;;1.30;99.90;;;;;;6304529;22;20022;-83
2023/12/08 03:45:57;;;;;;;812.72;749.65;;;1.50;99.90;;;;;;6306477;22;20061;-84
2023/12/08 03:48:23;;;;;;;707.85;654.88;;;1.20;99.90;;;;;;6305833;22;20316;-83
2023/12/08 03:50:48;;;;;;;825.20;760.10;;;1.00;99.90;;;;;;6305941;22;20015;-83
2023/12/08 03:53:14;;;;;;;829.20;763.80;;;0.90;99.90;;;;;;6306153;22;20041;-84
2023/12/08 03:55:40;;;;;;;804.50;741.92;;;1.10;99.90;;;;;;6304494;22;20021;-84
2023/12/08 03:58:05;;;;;;;724.38;670.08;;;1.80;99.90;;;;;;6279174;22;20500;-83
2023/12/08 04:00:31;;;;;;;674.00;624.13;;;2.10;99.90;;;;;;6305893;22;20018;-84
2023/12/08 04:02:57;;;;;;;817.47;753.35;;;1.40;99.90;;;;;;6304640;22;20058;-84
2023/12/08 04:05:23;;;;;;;792.97;732.28;;;0.90;99.90;;;;;;6306151;22;20023;-83
2023/12/08 04:07:49;;;;;;;801.05;738.38;;;0.90;99.90;;;;;;6304225;22;20015;-84
2023/12/08 04:10:14;;;;;;;772.85;713.63;;;1.50;99.90;;;;;;6306224;22;20015;-84
2023/12/08 04:12:40;;;;;;;841.63;775.05;;;1.80;99.90;;;;;;6279319;22;20055;-84
2023/12/08 04:15:06;;;;;;;850.90;783.95;;;2.10;99.90;;;;;;6304131;22;20015;-84
2023/12/08 04:17:32;;;;;;;848.10;781.60;;;0.90;99.90;;;;;;6305568;22;20365;-84
2023/12/08 04:19:58;;;;;;;861.83;792.70;;;1.10;99.90;;;;;;6305754;22;20046;-83
2023/12/08 04:22:23;;;;;;;855.45;787.15;;;1.60;99.90;;;;;;6278973;22;20015;-83
2023/12/08 04:24:49;;;;;;;854.83;786.15;;;1.70;99.90;;;;;;6280271;22;20011;-83
2023/12/08 04:27:15;;;;;;;851.63;783.95;;;1.50;99.90;;;;;;6305592;22;20548;-83
2023/12/08 04:29:40;;;;;;;871.75;801.50;;;0.90;99.90;;;;;;6303562;22;20015;-84
2023/12/08 04:32:06;;;;;;;863.28;793.45;;;1.00;99.90;;;;;;6305217;22;20019;-83
2023/12/08 04:34:32;;;;;;;845.95;778.67;;;0.90;99.90;;;;;;6305360;22;20447;-83
2023/12/08 04:36:58;;;;;;;889.33;817.40;;;1.60;99.90;;;;;;6304827;22;20015;-83
2023/12/08 04:39:24;;;;;;;859.28;790.78;;;0.90;99.90;;;;;;6305096;22;20022;-83
2023/12/08 04:41:49;;;;;;;853.33;785.17;;;0.90;99.90;;;;;;6305555;22;20450;-83
2023/12/08 04:44:15;;;;;;;838.10;772.58;;;1.60;99.90;;;;;;6303316;22;20079;-83
2023/12/08 04:46:41;;;;;;;809.97;747.03;;;1.90;99.90;;;;;;6304986;22;20015;-83
2023/12/08 04:49:06;;;;;;;767.40;708.67;;;0.80;99.90;;;;;;6305867;22;20030;-83
2023/12/08 04:51:35;;;;;;;737.20;681.75;;;0.90;99.90;;;;;;6303909;22;20015;-83
2023/12/08 04:54:01;;;;;;;898.97;824.95;;;0.80;99.90;;;;;;6305806;22;20443;-83
2023/12/08 04:56:27;;;;;;;892.40;819.65;;;1.50;99.90;;;;;;6299453;22;20015;-83
2023/12/08 04:58:52;;;;;;;897.15;823.63;;;0.70;99.90;;;;;;6272817;22;20030;-83
2023/12/08 05:01:18;;;;;;;910.22;835.22;;;1.20;99.90;;;;;;6300389;22;20046;-83
2023/12/08 05:03:44;;;;;;;871.25;801.25;;;0.80;99.90;;;;;;6273352;22;20016;-83
2023/12/08 05:06:10;;;;;;;908.15;833.13;;;1.20;99.90;;;;;;6299504;22;20094;-82
2023/12/08 05:08:36;;;;;;;908.90;833.00;;;1.00;99.90;;;;;;6299181;22;20094;-82
2023/12/08 05:11:02;;;;;;;970.05;886.10;;;1.60;99.90;;;;;;6301629;22;20054;-82
2023/12/08 05:13:27;;;;;;;932.42;855.50;;;0.60;99.90;;;;;;6298756;22;20340;-81
2023/12/08 05:15:53;;;;;;;930.90;851.55;;;1.10;99.90;;;;;;6274256;22;20072;-82
2023/12/08 05:18:19;;;;;;;966.83;882.47;;;1.60;99.90;;;;;;6299211;22;20777;-81
2023/12/08 05:20:44;;;;;;;968.25;884.00;;;0.60;99.90;;;;;;6299361;22;20082;-81
2023/12/08 05:23:10;;;;;;;950.00;867.38;;;1.00;99.90;;;;;;6299726;22;20011;-81
2023/12/08 05:25:36;;;;;;;996.65;906.53;;;1.80;99.90;;;;;;6300871;22;20309;-81
2023/12/08 05:28:01;;;;;;;968.65;885.72;;;0.80;99.90;;;;;;6273115;22;20023;-81
2023/12/08 05:30:27;;;;;;;983.97;896.60;;;0.60;99.90;;;;;;6299617;22;20073;-81
2023/12/08 05:32:54;;;;;;;961.85;877.83;;;1.60;99.90;;;;;;6298351;22;20052;-81
2023/12/08 05:35:20;;;;;;;1010.97;917.47;;;1.40;99.90;;;;;;6300202;22;20054;-82
2023/12/08 05:37:46;;;;;;;1018.53;925.45;;;0.90;99.90;;;;;;6299563;22;20015;-81
2023/12/08 05:40:12;;;;;;;998.25;907.65;;;1.00;99.90;;;;;;6300958;22;20362;-82
2023/12/08 05:42:38;;;;;;;986.72;897.75;;;0.60;99.90;;;;;;6301177;22;20023;-82
2023/12/08 05:45:04;;;;;;;981.55;893.47;;;1.20;99.90;;;;;;6301293;22;20337;-82
2023/12/08 05:47:30;;;;;;;980.78;892.85;;;0.60;99.90;;;;;;6298668;22;20122;-82
2023/12/08 05:49:55;;;;;;;1028.95;933.15;;;0.80;99.90;;;;;;6299861;22;20051;-82
2023/12/08 05:52:21;;;;;;;994.92;904.00;;;0.60;99.90;;;;;;6301197;22;20454;-82
2023/12/08 05:54:47;;;;;;;1000.72;909.60;;;0.50;99.90;;;;;;6298142;22;20027;-82
2023/12/08 05:57:12;;;;;;;1006.55;915.13;;;1.50;99.90;;;;;;6298326;22;20038;-82
2023/12/08 05:59:38;;;;;;;998.42;907.75;;;1.60;99.90;;;;;;6296862;22;20050;-82
2023/12/08 06:02:04;;;;;;;1018.83;926.28;;;1.10;99.90;;;;;;6298752;22;20082;-82
2023/12/08 06:04:29;;;;;;;1069.97;967.28;;;0.60;99.90;;;;;;6298743;22;20026;-83
2023/12/08 06:06:55;;;;;;;1049.50;949.83;;;0.90;99.90;;;;;;6301747;22;20366;-82
2023/12/08 06:09:21;;;;;;;1018.30;924.60;;;0.50;99.90;;;;;;6297946;22;20021;-82
2023/12/08 06:11:46;;;;;;;1017.65;923.08;;;1.10;99.90;;;;;;6299205;22;20011;-83
2023/12/08 06:14:12;;;;;;;1043.22;943.58;;;0.50;99.90;;;;;;6298485;22;20068;-82
2023/12/08 06:16:38;;;;;;;1023.03;927.97;;;0.90;99.90;;;;;;6294174;22;20124;-84
2023/12/08 06:19:04;;;;;;;1040.05;942.20;;;1.40;99.90;;;;;;6272933;22;20026;-84
2023/12/08 06:21:30;;;;;;;1040.85;938.17;;;1.10;99.90;;;;;;6297264;22;20080;-84
2023/12/08 06:23:56;;;;;;;1039.22;938.88;;;0.90;99.90;;;;;;6298940;22;20022;-83
2023/12/08 06:26:24;;;;;;;1060.55;956.38;;;0.50;99.90;;;;;;6273336;22;20110;-83
2023/12/08 06:28:49;;;;;;;1045.72;945.42;;;0.40;99.90;;;;;;6296162;22;20012;-84
2023/12/08 06:31:15;;;;;;;1027.65;931.85;;;0.40;99.90;;;;;;6273569;22;20020;-83
2023/12/08 06:33:41;;;;;;;1026.63;930.55;;;0.90;99.90;;;;;;6272249;22;20058;-83
2023/12/08 06:36:07;;;;;;;1018.05;922.83;;;1.20;99.90;;;;;;6298220;22;20051;-84
2023/12/08 06:38:33;;;;;;;1030.68;934.45;;;0.40;99.90;;;;;;6273387;22;20019;-84
2023/12/08 06:40:59;;;;;;;1034.15;936.92;;;1.40;99.90;;;;;;6272453;22;20466;-84
2023/12/08 06:43:25;;;;;;;1026.00;929.20;;;1.00;99.90;;;;;;6297441;22;20023;-84
2023/12/08 06:45:51;;;;;;;1055.07;953.45;;;1.30;99.90;;;;;;6301053;22;20046;-84
2023/12/08 06:48:17;;;;;;;1012.65;918.50;;;1.50;99.90;;;;;;6299181;22;20027;-83
2023/12/08 06:50:43;;;;;;;1067.85;965.33;;;1.10;99.90;;;;;;6297674;22;20011;-83
2023/12/08 06:53:08;;;;;;;1055.53;953.35;;;0.40;99.90;;;;;;6298405;22;20077;-83
2023/12/08 06:55:35;;;;;;;1059.05;957.10;;;1.50;99.90;;;;;;6273507;22;20021;-83
2023/12/08 06:58:01;;;;;;;1056.43;952.70;;;0.40;99.90;;;;;;6328457;22;20017;-85
2023/12/08 07:00:26;;;;;;;1060.95;958.90;;;1.30;99.90;;;;;;6303067;22;20029;-84
2023/12/08 07:02:52;;;;;;;1024.30;930.05;;;0.40;99.90;;;;;;6304429;22;20018;-84
2023/12/08 07:05:20;;;;;;;1059.95;956.42;;;0.90;99.90;;;;;;6303170;22;20054;-86
2023/12/08 07:07:47;;;;;;;1056.60;953.50;;;0.50;99.90;;;;;;6277080;22;20019;-83
2023/12/08 07:10:14;;;;;;;1074.78;967.08;;;1.20;99.90;;;;;;6305144;22;20032;-84
2023/12/08 07:12:41;;;;;;;1058.13;955.85;;;0.50;99.90;;;;;;6304732;22;20058;-84
2023/12/08 07:15:07;;;;;;;1022.70;927.53;;;0.80;99.90;;;;;;6305459;22;20007;-84
2023/12/08 07:17:33;;;;;;;1031.20;933.67;;;0.40;99.90;;;;;;6279744;22;20068;-84
2023/12/08 07:19:58;;;;;;;1065.38;962.95;;;1.10;99.90;;;;;;6304455;22;20011;-84
2023/12/08 07:22:24;;;;;;;1063.47;959.05;;;0.90;99.90;;;;;;6305471;22;20026;-84
2023/12/08 07:24:50;;;;;;;1020.90;926.33;;;0.70;99.90;;;;;;6304597;22;20452;-84
2023/12/08 07:27:16;;;;;;;1048.72;947.97;;;1.20;99.90;;;;;;6306393;22;20011;-83
2023/12/08 07:29:42;;;;;;;1044.22;944.75;;;1.40;99.90;;;;;;6304795;22;20111;-83
2023/12/08 07:32:07;;;;;;;1051.22;950.10;;;1.20;99.90;;;;;;6305295;22;20014;-84
2023/12/08 07:34:33;;;;;;;1014.05;918.65;;;1.50;99.90;;;;;;6304615;22;20022;-84
2023/12/08 07:36:59;;;;;;;1054.32;952.65;;;0.40;99.90;;;;;;6306294;22;20015;-84
2023/12/08 07:39:25;;;;;;;1010.13;917.72;;;0.40;99.90;;;;;;6304546;22;20014;-84
2023/12/08 07:41:51;;;;;;;1019.97;926.15;;;1.30;99.90;;;;;;6280166;22;20018;-85
2023/12/08 07:44:17;;;;;;;1037.75;938.95;;;1.10;99.90;;;;;;6304477;22;20072;-83
2023/12/08 07:46:43;;;;;;;1067.82;963.83;;;0.50;99.90;;;;;;6304877;22;20011;-84
2023/12/08 07:49:08;;;;;;;1059.07;956.58;;;1.20;99.90;;;;;;6305659;22;20019;-84
2023/12/08 07:51:34;;;;;;;1026.90;931.17;;;1.00;99.90;;;;;;6305097;22;20064;-84
2023/12/08 07:54:03;;;;;;;1068.32;964.03;;;1.10;99.90;;;;;;6304092;22;20106;-85
2023/12/08 07:56:29;;;;;;;1051.72;949.35;;;0.40;99.90;;;;;;6299774;22;20011;-85
2023/12/08 07:58:54;;;;;;;1022.22;927.92;;;0.70;99.90;;;;;;6273909;22;20030;-84
2023/12/08 08:01:21;;;;;;;1019.20;925.40;;;1.10;99.90;;;;;;6299687;22;20112;-84
2023/12/08 08:03:47;;;;;;;1013.17;918.55;;;0.50;99.90;;;;;;6299785;22;20015;-85
2023/12/08 08:06:13;;;;;;;1053.28;953.05;;;0.50;99.90;;;;;;6274891;22;20284;-86
2023/12/08 08:08:39;;;;;;;1026.97;930.85;;;1.30;99.90;;;;;;6298420;22;20020;-86
2023/12/08 08:11:04;;;;;;;1005.88;912.50;;;1.00;99.90;;;;;;6300605;22;20197;-81
2023/12/08 08:13:30;;;;;;;1074.18;967.22;;;0.50;99.90;;;;;;6299067;22;20023;-85
2023/12/08 08:15:56;;;;;;;1052.20;951.90;;;0.50;99.90;;;;;;6272328;22;20077;-84
2023/12/08 08:18:22;;;;;;;1009.60;916.25;;;1.20;99.90;;;;;;6274553;22;20042;-84
2023/12/08 08:20:47;;;;;;;1068.32;964.17;;;1.10;99.90;;;;;;6299370;22;20019;-84
2023/12/08 08:23:13;;;;;;;1051.55;949.25;;;0.60;99.90;;;;;;6299787;22;20018;-84
2023/12/08 08:25:39;;;;;;;1063.38;958.88;;;1.50;99.90;;;;;;6300282;22;20019;-84
2023/12/08 08:28:04;;;;;;;1014.80;921.35;;;1.10;99.90;;;;;;6298277;22;20499;-84
2023/12/08 08:30:30;;;;;;;1026.35;929.95;;;1.20;99.90;;;;;;6300326;22;20025;-84
2023/12/08 08:32:56;;;;;;;1008.60;915.10;;;1.20;99.90;;;;;;6274745;22;20423;-84
2023/12/08 08:35:21;;;;;;;1038.45;940.28;;;1.30;99.90;;;;;;6273785;22;20395;-84
2023/12/08 08:37:47;;;;;;;1014.35;920.65;;;0.60;99.90;;;;;;6300141;22;20027;-83
2023/12/08 08:40:13;;;;;;;1020.65;924.78;;;0.80;99.90;;;;;;6274266;22;20038;-84
2023/12/08 08:42:39;;;;;;;1010.80;917.42;;;1.50;99.90;;;;;;6273399;22;20026;-84
2023/12/08 08:45:06;;;;;;;1034.40;936.38;;;0.60;99.90;;;;;;6299666;22;20019;-83
2023/12/08 08:47:32;;;;;;;1034.43;935.35;;;0.60;99.90;;;;;;6273566;22;20015;-83
2023/12/08 08:49:58;;;;;;;1064.10;960.95;;;0.60;99.90;;;;;;6273435;22;20057;-82
2023/12/08 08:52:24;;;;;;;1047.68;945.30;;;0.60;99.90;;;;;;6299583;22;20077;-82
2023/12/08 08:54:49;;;;;;;1048.28;948.45;;;0.80;99.90;;;;;;6299482;22;20019;-81
2023/12/08 08:57:16;;;;;;;1017.03;921.90;;;0.90;99.90;;;;;;6272967;22;20015;-82
2023/12/08 08:59:42;;;;;;;1026.22;929.78;;;1.60;99.90;;;;;;6272864;22;20022;-83
2023/12/08 09:02:08;;;;;;;981.10;890.25;;;0.70;99.90;;;;;;6299858;22;20015;-82
2023/12/08 09:04:33;;;;;;;950.90;867.85;;;0.70;99.90;;;;;;6297944;22;20055;-82
2023/12/08 09:06:59;;;;;;;1000.22;907.22;;;0.70;99.90;;;;;;6274426;22;20022;-82
2023/12/08 09:09:25;;;;;;;942.83;860.83;;;0.80;99.90;;;;;;6273284;22;20398;-82
2023/12/08 09:11:51;;;;;;;949.90;867.38;;;1.80;99.90;;;;;;6273557;22;20094;-82
2023/12/08 09:14:16;;;;;;;1005.75;914.58;;;0.70;99.90;;;;;;6272778;22;20058;-83
2023/12/08 09:16:42;;;;;;;967.90;881.20;;;1.00;99.90;;;;;;6273578;22;20343;-83
2023/12/08 09:19:08;;;;;;;884.75;810.72;;;0.70;99.90;;;;;;6298996;22;20105;-82
2023/12/08 09:21:33;;;;;;;881.15;807.47;;;1.70;99.90;;;;;;6273249;22;20034;-83
2023/12/08 09:23:59;;;;;;;891.90;817.45;;;0.70;99.90;;;;;;6273565;22;20046;-83
2023/12/08 09:26:25;;;;;;;786.53;724.78;;;0.80;99.90;;;;;;6273385;22;20548;-82
2023/12/08 09:28:51;;;;;;;953.33;869.85;;;0.70;99.90;;;;;;6272422;22;20493;-82
2023/12/08 09:31:17;;;;;;;800.70;737.47;;;0.80;99.90;;;;;;6298487;22;20030;-83
2023/12/08 09:33:42;;;;;;;795.10;732.72;;;0.80;99.90;;;;;;6298747;22;20539;-83
2023/12/08 09:36:09;;;;;;;888.47;814.47;;;1.40;99.90;;;;;;6299032;22;20107;-83
2023/12/08 09:38:35;;;;;;;796.08;733.45;;;1.20;99.90;;;;;;6272511;22;20126;-83
2023/12/08 09:41:04;;;;;;;928.28;848.83;;;0.80;99.90;;;;;;6298291;22;20053;-83
2023/12/08 09:43:38;;;;;;;775.95;715.92;;;0.90;99.90;;;;;;6298223;22;20530;-83
2023/12/08 09:46:04;;;;;;;723.90;668.33;;;1.70;99.90;;;;;;6272955;22;20011;-83
2023/12/08 09:48:33;;;;;;;740.35;683.55;;;0.90;99.90;;;;;;6299025;22;20467;-83
2023/12/08 09:51:01;;;;;;;730.08;674.97;;;1.00;99.90;;;;;;6298891;22;20019;-83
2023/12/08 09:53:29;;;;;;;780.25;720.47;;;0.90;99.90;;;;;;6272194;22;20027;-84
2023/12/08 09:55:55;;;;;;;741.85;685.28;;;1.10;99.90;;;;;;6301627;22;20056;-84
2023/12/08 09:58:23;;;;;;;783.17;722.20;;;1.00;99.90;;;;;;6303541;22;20025;-84
2023/12/08 10:00:49;;;;;;;700.95;647.13;;;1.20;99.90;;;;;;6277591;22;20014;-84
2023/12/08 10:03:15;;;;;;;755.72;698.17;;;2.00;99.90;;;;;;6279172;22;20188;-84
2023/12/08 10:05:41;;;;;;;690.47;637.58;;;1.00;99.90;;;;;;6304341;22;20053;-85
2023/12/08 10:08:08;;;;;;;768.05;708.80;;;2.00;99.90;;;;;;6303323;22;20022;-85
2023/12/08 10:10:37;;;;;;;700.78;647.55;;;1.40;99.90;;;;;;6304724;22;20018;-85
2023/12/08 10:13:05;;;;;;;708.08;654.25;;;1.00;99.90;;;;;;6278172;22;20042;-84
2023/12/08 10:15:31;;;;;;;743.45;686.78;;;1.00;99.90;;;;;;6277912;22;20467;-85
2023/12/08 10:17:57;;;;;;;685.75;633.85;;;1.90;99.90;;;;;;6304330;22;20076;-85
2023/12/08 10:20:23;;;;;;;672.17;621.05;;;1.50;99.90;;;;;;6304927;22;20018;-85
2023/12/08 10:22:54;;;;;;;675.17;623.70;;;2.00;99.90;;;;;;6277274;22;20015;-85
2023/12/08 10:25:22;;;;;;;718.20;663.47;;;1.00;99.90;;;;;;6278852;22;20129;-84
2023/12/08 10:27:51;;;;;;;676.10;625.38;;;1.00;99.90;;;;;;6277249;22;20744;-84
2023/12/08 10:30:18;;;;;;;698.25;645.85;;;1.00;99.90;;;;;;6278055;22;20482;-84
2023/12/08 10:32:45;;;;;;;698.80;645.92;;;1.00;99.90;;;;;;6277826;22;20034;-85
2023/12/08 10:35:11;;;;;;;757.55;699.03;;;1.10;99.90;;;;;;6277730;22;20098;-84
2023/12/08 10:37:40;;;;;;;706.90;653.53;;;1.10;99.90;;;;;;6304051;22;20022;-85
2023/12/08 10:40:08;;;;;;;687.88;636.20;;;1.10;99.90;;;;;;6304356;22;20080;-85
2023/12/08 10:42:34;;;;;;;756.67;698.38;;;1.10;99.90;;;;;;6276681;22;20072;-84
2023/12/08 10:45:00;;;;;;;683.75;632.33;;;1.10;99.90;;;;;;6305309;22;20033;-84
2023/12/08 10:47:27;;;;;;;685.33;634.00;;;1.10;99.90;;;;;;6280516;22;20450;-85
2023/12/08 10:49:54;;;;;;;683.53;631.65;;;1.20;99.90;;;;;;6305144;22;20098;-84
2023/12/08 10:52:22;;;;;;;725.15;669.95;;;1.10;99.90;;;;;;6306512;22;20045;-85
2023/12/08 10:54:49;;;;;;;708.13;654.30;;;1.20;99.90;;;;;;6334061;22;20117;-85
2023/12/08 10:57:16;;;;;;;659.60;610.13;;;1.50;99.90;;;;;;6305683;22;20022;-84
2023/12/08 10:59:44;;;;;;;664.65;614.70;;;1.10;99.90;;;;;;6304794;22;20030;-85
2023/12/08 11:02:20;;;;;;;668.25;617.80;;;1.10;99.90;;;;;;6280849;22;20453;-84
2023/12/08 11:04:52;;;;;;;677.72;626.30;;;1.70;99.90;;;;;;6279315;22;20087;-85
2023/12/08 11:07:27;;;;;;;723.53;668.70;;;1.10;99.90;;;;;;6306671;22;20079;-84
2023/12/08 11:09:56;;;;;;;747.75;689.90;;;1.80;99.90;;;;;;6279767;22;20015;-84
2023/12/08 11:12:26;;;;;;;693.72;641.28;;;2.00;99.90;;;;;;6305728;22;20022;-85
2023/12/08 11:15:03;;;;;;;680.20;628.75;;;1.20;99.90;;;;;;6280390;22;20019;-85
2023/12/08 11:17:40;;;;;;;677.95;626.72;;;1.90;99.90;;;;;;6304792;22;20017;-84
2023/12/08 11:20:08;;;;;;;678.95;627.13;;;2.00;99.90;;;;;;6305431;22;20103;-85
2023/12/08 11:22:34;;;;;;;737.58;681.30;;;1.20;99.90;;;;;;6279729;22;20022;-83
2023/12/08 11:25:10;;;;;;;704.20;650.92;;;1.80;99.90;;;;;;6305082;22;20006;-84
2023/12/08 11:27:43;;;;;;;725.55;670.20;;;1.30;99.90;;;;;;6279651;22;20026;-85
2023/12/08 11:30:24;;;;;;;764.95;705.92;;;1.30;99.90;;;;;;6305830;22;20015;-84
2023/12/08 11:33:01;;;;;;;690.38;637.92;;;1.30;99.90;;;;;;6304713;22;20015;-85
2023/12/08 11:35:30;;;;;;;692.85;639.38;;;1.30;99.90;;;;;;6279862;22;20018;-86
2023/12/08 11:37:56;;;;;;;683.83;631.08;;;1.30;99.90;;;;;;6279933;22;20010;-84
2023/12/08 11:40:22;;;;;;;691.75;639.00;;;1.30;99.90;;;;;;6305283;22;20420;-84
2023/12/08 11:42:50;;;;;;;683.92;632.03;;;1.30;99.90;;;;;;6305118;22;20110;-84
2023/12/08 11:45:18;;;;;;;670.20;619.05;;;1.30;99.90;;;;;;6304230;22;20018;-85
2023/12/08 11:47:44;;;;;;;704.15;650.55;;;1.30;99.90;;;;;;6279669;22;20053;-84
2023/12/08 11:50:11;;;;;;;724.75;669.35;;;1.30;99.90;;;;;;6305180;22;20023;-85
2023/12/08 11:52:37;;;;;;;726.17;670.05;;;1.90;99.90;;;;;;6305212;22;20057;-85
2023/12/08 11:55:12;;;;;;;682.70;630.03;;;1.30;99.90;;;;;;6305255;22;20014;-85
2023/12/08 11:57:51;;;;;;;694.38;640.95;;;1.30;99.90;;;;;;6299561;22;20102;-85
2023/12/08 12:00:19;;;;;;;695.15;641.65;;;1.40;99.90;;;;;;6299066;22;20019;-85
2023/12/08 12:02:46;;;;;;;736.65;679.90;;;1.40;99.90;;;;;;6299761;22;20085;-85
2023/12/08 12:05:12;;;;;;;681.10;628.08;;;2.10;99.90;;;;;;6274943;22;20019;-84
2023/12/08 12:07:39;;;;;;;739.45;682.17;;;2.30;99.90;;;;;;6299434;22;20015;-85
2023/12/08 12:10:09;;;;;;;700.05;645.47;;;2.10;99.90;;;;;;6274333;22;20054;-85
2023/12/08 12:12:40;;;;;;;785.40;721.65;;;1.40;99.90;;;;;;6273786;22;20022;-83